createdAt,value
2018-07-28T00:00:26.036Z,21.75
2018-07-28T00:02:55.352Z,21.75
2018-07-28T00:05:25.445Z,21.66
2018-07-28T00:07:54.829Z,21.56
2018-07-28T00:10:24.689Z,21.47
2018-07-28T00:12:53.876Z,21.43
2018-07-28T00:15:23.021Z,21.31
2018-07-28T00:17:53.329Z,21.10
2018-07-28T00:20:22.523Z,21.10
2018-07-28T00:22:51.743Z,21.29
2018-07-28T00:25:21.923Z,21.35
2018-07-28T00:27:51.097Z,21.37
2018-07-28T00:30:20.313Z,21.20
2018-07-28T00:32:49.683Z,21.31
2018-07-28T00:35:19.643Z,21.15
2018-07-28T00:37:49.170Z,21.22
2018-07-28T00:40:19.275Z,21.35
2018-07-28T00:42:49.017Z,21.34
2018-07-28T00:45:18.240Z,21.18
2018-07-28T00:47:48.032Z,21.14
2018-07-28T00:50:18.297Z,21.00
2018-07-28T00:52:47.429Z,20.93
2018-07-28T00:55:16.570Z,20.85
2018-07-28T00:57:45.691Z,20.99
2018-07-28T01:00:14.801Z,20.95
2018-07-28T01:02:43.909Z,20.91
2018-07-28T01:05:13.021Z,20.94
2018-07-28T01:07:42.109Z,20.88
2018-07-28T01:10:11.225Z,20.86
2018-07-28T01:12:40.361Z,20.77
2018-07-28T01:15:10.914Z,20.75
2018-07-28T01:17:40.313Z,20.78
2018-07-28T01:20:10.957Z,20.58
2018-07-28T01:22:41.065Z,20.78
2018-07-28T01:25:11.381Z,20.78
2018-07-28T01:27:41.369Z,20.78
2018-07-28T01:30:14.640Z,20.70
2018-07-28T01:32:43.770Z,20.53
2018-07-28T01:35:12.896Z,20.46
2018-07-28T01:37:42.078Z,20.38
2018-07-28T01:40:11.266Z,20.48
2018-07-28T01:42:40.380Z,20.35
2018-07-28T01:45:09.940Z,20.31
2018-07-28T01:47:39.136Z,20.34
2018-07-28T01:50:09.260Z,20.46
2018-07-28T01:52:38.399Z,20.44
2018-07-28T01:55:07.476Z,20.34
2018-07-28T01:57:36.629Z,20.29
2018-07-28T02:00:06.661Z,20.17
2018-07-28T02:02:35.864Z,20.12
2018-07-28T02:05:06.300Z,20.13
2018-07-28T02:07:35.620Z,20.07
2018-07-28T02:10:04.981Z,20.04
2018-07-28T02:12:34.194Z,20.00
2018-07-28T02:15:03.366Z,19.85
2018-07-28T02:17:32.557Z,19.84
2018-07-28T02:20:01.744Z,19.94
2018-07-28T02:22:30.956Z,19.84
2018-07-28T02:25:00.066Z,19.85
2018-07-28T02:27:29.246Z,19.78
2018-07-28T02:29:58.356Z,19.79
2018-07-28T02:32:27.732Z,19.82
2018-07-28T02:34:56.961Z,19.82
2018-07-28T02:37:26.106Z,19.83
2018-07-28T02:39:55.342Z,19.82
2018-07-28T02:42:24.547Z,19.77
2018-07-28T02:44:53.730Z,19.86
2018-07-28T02:47:22.830Z,20.03
2018-07-28T02:49:51.957Z,20.08
2018-07-28T02:52:21.042Z,20.12
2018-07-28T02:54:50.239Z,20.13
2018-07-28T02:57:19.361Z,19.93
2018-07-28T02:59:48.539Z,19.90
2018-07-28T03:02:17.653Z,19.75
2018-07-28T03:04:46.829Z,19.63
2018-07-28T03:07:16.017Z,19.56
2018-07-28T03:09:45.122Z,19.54
2018-07-28T03:12:14.275Z,19.54
2018-07-28T03:14:43.409Z,19.55
2018-07-28T03:17:12.557Z,19.68
2018-07-28T03:19:41.771Z,19.69
2018-07-28T03:22:10.869Z,19.64
2018-07-28T03:24:40.029Z,19.70
2018-07-28T03:27:09.159Z,19.62
2018-07-28T03:29:38.321Z,19.56
2018-07-28T03:32:07.597Z,19.58
2018-07-28T03:34:36.857Z,19.64
2018-07-28T03:37:06.324Z,19.66
2018-07-28T03:39:35.464Z,19.71
2018-07-28T03:42:04.605Z,19.70
2018-07-28T03:44:33.728Z,19.57
2018-07-28T03:47:02.892Z,19.46
2018-07-28T03:49:32.025Z,19.34
2018-07-28T03:52:01.184Z,19.22
2018-07-28T03:54:30.342Z,19.29
2018-07-28T03:56:59.506Z,19.16
2018-07-28T03:59:28.621Z,19.27
2018-07-28T04:01:57.740Z,19.25
2018-07-28T04:04:26.941Z,19.25
2018-07-28T04:06:56.228Z,19.27
2018-07-28T04:09:25.398Z,19.23
2018-07-28T04:11:54.492Z,19.22
2018-07-28T04:14:23.963Z,19.30
2018-07-28T04:16:53.066Z,19.31
2018-07-28T04:19:22.183Z,19.23
2018-07-28T04:21:51.313Z,19.27
2018-07-28T04:24:20.477Z,19.24
2018-07-28T04:26:49.737Z,19.30
2018-07-28T04:29:18.865Z,19.29
2018-07-28T04:31:47.961Z,19.35
2018-07-28T04:34:17.172Z,19.36
2018-07-28T04:36:46.241Z,19.36
2018-07-28T04:39:15.441Z,19.36
2018-07-28T04:41:44.501Z,19.51
2018-07-28T04:44:13.698Z,19.45
2018-07-28T04:46:42.863Z,19.38
2018-07-28T04:49:11.976Z,19.39
2018-07-28T04:51:41.185Z,19.46
2018-07-28T04:54:10.484Z,19.47
2018-07-28T04:56:39.680Z,19.55
2018-07-28T04:59:08.810Z,19.51
2018-07-28T05:01:37.910Z,19.67
2018-07-28T05:04:07.010Z,19.78
2018-07-28T05:06:36.106Z,19.79
2018-07-28T05:09:08.022Z,19.87
2018-07-28T05:11:37.141Z,19.97
2018-07-28T05:14:06.232Z,20.08
2018-07-28T05:16:35.370Z,20.19
2018-07-28T05:19:04.900Z,20.15
2018-07-28T05:21:34.042Z,20.21
2018-07-28T05:24:03.253Z,20.29
2018-07-28T05:26:32.365Z,20.30
2018-07-28T05:29:01.478Z,20.40
2018-07-28T05:31:30.650Z,20.53
2018-07-28T05:33:59.804Z,20.63
2018-07-28T05:36:28.966Z,20.72
2018-07-28T05:38:58.125Z,20.74
2018-07-28T05:41:27.342Z,20.83
2018-07-28T05:43:56.444Z,20.93
2018-07-28T05:46:25.658Z,21.02
2018-07-28T05:48:55.078Z,21.11
2018-07-28T05:51:24.446Z,21.19
2018-07-28T05:53:53.660Z,21.28
2018-07-28T05:56:22.792Z,21.27
2018-07-28T05:58:51.861Z,21.28
2018-07-28T06:01:21.042Z,21.32
2018-07-28T06:03:50.174Z,21.43
2018-07-28T06:06:19.348Z,21.47
2018-07-28T06:08:48.477Z,21.56
2018-07-28T06:11:17.673Z,21.63
2018-07-28T06:13:47.119Z,21.68
2018-07-28T06:16:16.645Z,21.69
2018-07-28T06:18:45.918Z,21.80
2018-07-28T06:21:15.115Z,21.85
2018-07-28T06:23:44.275Z,22.04
2018-07-28T06:26:13.429Z,22.03
2018-07-28T06:28:42.609Z,22.00
2018-07-28T06:31:11.697Z,22.16
2018-07-28T06:33:40.814Z,22.28
2018-07-28T06:36:09.874Z,22.34
2018-07-28T06:38:38.999Z,22.34
2018-07-28T06:41:08.227Z,22.26
2018-07-28T06:43:37.347Z,22.34
2018-07-28T06:46:06.467Z,22.35
2018-07-28T06:48:36.335Z,22.47
2018-07-28T06:51:05.580Z,22.82
2018-07-28T06:53:34.720Z,22.80
2018-07-28T06:56:03.960Z,22.83
2018-07-28T06:58:33.152Z,22.94
2018-07-28T07:01:02.323Z,22.95
2018-07-28T07:03:31.634Z,22.86
2018-07-28T07:06:00.692Z,22.76
2018-07-28T07:08:29.822Z,22.71
2018-07-28T07:10:59.012Z,22.75
2018-07-28T07:13:28.136Z,22.90
2018-07-28T07:15:57.256Z,22.96
2018-07-28T07:18:26.473Z,23.06
2018-07-28T07:20:55.563Z,23.18
2018-07-28T07:23:24.685Z,23.26
2018-07-28T07:25:53.787Z,23.28
2018-07-28T07:28:22.951Z,23.20
2018-07-28T07:30:52.053Z,23.33
2018-07-28T07:33:21.254Z,23.42
2018-07-28T07:35:50.321Z,23.38
2018-07-28T07:38:19.461Z,23.49
2018-07-28T07:40:48.688Z,23.44
2018-07-28T07:43:17.781Z,23.55
2018-07-28T07:45:46.901Z,23.55
2018-07-28T07:48:15.977Z,23.63
2018-07-28T07:50:45.123Z,23.83
2018-07-28T07:53:14.441Z,23.99
2018-07-28T07:55:43.657Z,24.31
2018-07-28T07:58:12.720Z,24.52
2018-07-28T08:00:41.938Z,24.41
2018-07-28T08:03:11.145Z,24.22
2018-07-28T08:05:40.228Z,24.25
2018-07-28T08:08:09.405Z,24.37
2018-07-28T08:10:38.580Z,24.37
2018-07-28T08:13:07.720Z,24.34
2018-07-28T08:15:36.848Z,24.39
2018-07-28T08:18:06.426Z,24.50
2018-07-28T08:20:35.660Z,24.53
2018-07-28T08:23:04.790Z,24.56
2018-07-28T08:25:33.928Z,24.68
2018-07-28T08:28:03.000Z,24.80
2018-07-28T08:30:32.124Z,25.05
2018-07-28T08:33:01.301Z,25.28
2018-07-28T08:35:30.430Z,25.31
2018-07-28T08:37:59.569Z,25.33
2018-07-28T08:40:28.844Z,25.37
2018-07-28T08:42:58.172Z,25.39
2018-07-28T08:45:27.356Z,25.38
2018-07-28T08:47:56.589Z,25.47
2018-07-28T08:50:25.884Z,25.56
2018-07-28T08:52:55.099Z,25.36
2018-07-28T08:55:24.186Z,25.51
2018-07-28T08:57:53.336Z,25.61
2018-07-28T09:00:22.574Z,25.84
2018-07-28T09:02:51.796Z,25.70
2018-07-28T09:05:20.938Z,25.67
2018-07-28T09:07:50.052Z,25.88
2018-07-28T09:10:19.203Z,26.15
2018-07-28T09:12:48.356Z,26.47
2018-07-28T09:15:17.437Z,26.59
2018-07-28T09:17:46.639Z,26.59
2018-07-28T09:20:15.720Z,26.82
2018-07-28T09:22:44.796Z,26.91
2018-07-28T09:25:14.033Z,26.81
2018-07-28T09:27:43.156Z,26.85
2018-07-28T09:30:12.237Z,26.60
2018-07-28T09:32:41.429Z,26.60
2018-07-28T09:35:10.617Z,26.78
2018-07-28T09:37:46.156Z,26.63
2018-07-28T09:40:15.217Z,26.58
2018-07-28T09:42:44.478Z,26.65
2018-07-28T09:45:13.697Z,26.72
2018-07-28T09:47:42.827Z,27.06
2018-07-28T09:50:11.938Z,27.32
2018-07-28T09:52:41.145Z,27.16
2018-07-28T09:55:10.389Z,27.32
2018-07-28T09:57:39.519Z,27.49
2018-07-28T10:00:08.937Z,27.42
2018-07-28T10:02:38.147Z,27.43
2018-07-28T10:05:07.475Z,27.50
2018-07-28T10:07:36.586Z,27.51
2018-07-28T10:10:05.757Z,27.80
2018-07-28T10:12:34.909Z,27.79
2018-07-28T10:15:04.165Z,27.83
2018-07-28T10:17:33.471Z,27.70
2018-07-28T10:20:02.755Z,27.68
2018-07-28T10:22:31.913Z,27.80
2018-07-28T10:25:01.149Z,27.61
2018-07-28T10:27:30.228Z,27.68
2018-07-28T10:29:59.374Z,27.85
2018-07-28T10:32:28.492Z,27.71
2018-07-28T10:34:57.692Z,28.01
2018-07-28T10:37:26.834Z,27.71
2018-07-28T10:39:56.005Z,27.81
2018-07-28T10:42:25.206Z,27.60
2018-07-28T10:44:54.476Z,27.61
2018-07-28T10:47:24.083Z,27.52
2018-07-28T10:49:53.282Z,27.48
2018-07-28T10:52:22.438Z,27.42
2018-07-28T10:54:52.244Z,27.47
2018-07-28T10:57:23.695Z,27.48
2018-07-28T10:59:53.361Z,27.40
2018-07-28T11:02:22.836Z,27.49
2018-07-28T11:04:52.056Z,27.55
2018-07-28T11:07:21.248Z,27.61
2018-07-28T11:09:50.461Z,27.40
2018-07-28T11:12:19.700Z,27.37
2018-07-28T11:14:48.990Z,27.39
2018-07-28T11:17:18.132Z,27.48
2018-07-28T11:19:47.324Z,27.52
2018-07-28T11:22:16.524Z,27.67
2018-07-28T11:24:45.700Z,27.67
2018-07-28T11:27:14.826Z,27.87
2018-07-28T11:29:43.925Z,28.03
2018-07-28T11:32:24.570Z,28.21
2018-07-28T11:35:04.981Z,27.88
2018-07-28T11:38:43.221Z,27.86
2018-07-28T11:42:24.378Z,27.82
2018-07-28T11:45:02.726Z,27.90
2018-07-28T11:47:31.901Z,28.13
2018-07-28T11:50:01.265Z,28.21
2018-07-28T11:52:30.540Z,28.29
2018-07-28T11:54:59.759Z,28.24
2018-07-28T11:57:28.959Z,28.05
2018-07-28T11:59:58.141Z,28.22
2018-07-28T12:02:27.351Z,28.32
2018-07-28T12:04:56.561Z,28.57
2018-07-28T12:07:25.630Z,28.88
2018-07-28T12:09:54.876Z,28.58
2018-07-28T12:12:24.153Z,28.37
2018-07-28T12:14:53.376Z,28.15
2018-07-28T12:17:22.534Z,28.35
2018-07-28T12:19:51.658Z,28.23
2018-07-28T12:22:20.849Z,28.68
2018-07-28T12:24:50.062Z,28.68
2018-07-28T12:27:19.214Z,28.81
2018-07-28T12:29:48.340Z,29.04
2018-07-28T12:32:17.524Z,29.12
2018-07-28T12:34:46.767Z,29.80
2018-07-28T12:37:15.913Z,30.54
2018-07-28T12:39:45.097Z,29.87
2018-07-28T12:42:14.338Z,29.65
2018-07-28T12:44:43.506Z,28.99
2018-07-28T12:47:12.804Z,29.08
2018-07-28T12:49:41.913Z,28.76
2018-07-28T12:52:11.091Z,28.45
2018-07-28T12:54:40.175Z,28.28
2018-07-28T12:57:09.441Z,28.33
2018-07-28T12:59:38.585Z,28.30
2018-07-28T13:02:07.808Z,28.24
2018-07-28T13:04:36.985Z,28.30
2018-07-28T13:07:06.082Z,28.49
2018-07-28T13:09:35.276Z,28.45
2018-07-28T13:12:04.576Z,28.60
2018-07-28T13:14:33.645Z,29.48
2018-07-28T13:17:02.775Z,29.61
2018-07-28T13:19:32.173Z,29.10
2018-07-28T13:22:01.265Z,29.86
2018-07-28T13:24:30.439Z,29.94
2018-07-28T13:26:59.540Z,29.50
2018-07-28T13:29:28.650Z,29.35
2018-07-28T13:31:57.878Z,29.55
2018-07-28T13:34:27.142Z,29.06
2018-07-28T13:36:56.241Z,28.94
2018-07-28T13:39:25.644Z,29.04
2018-07-28T13:41:54.762Z,29.20
2018-07-28T13:44:23.978Z,29.69
2018-07-28T13:46:53.136Z,29.93
2018-07-28T13:49:22.447Z,29.22
2018-07-28T13:51:51.566Z,29.52
2018-07-28T13:54:20.628Z,28.87
2018-07-28T13:56:49.818Z,28.66
2018-07-28T13:59:19.112Z,28.28
2018-07-28T14:01:48.418Z,28.15
2018-07-28T14:04:17.548Z,28.19
2018-07-28T14:06:46.669Z,28.53
2018-07-28T14:09:16.010Z,29.75
2018-07-28T14:11:45.165Z,31.11
2018-07-28T14:14:14.413Z,31.67
2018-07-28T14:16:43.531Z,30.23
2018-07-28T14:19:12.661Z,29.29
2018-07-28T14:21:42.158Z,29.80
2018-07-28T14:24:11.275Z,29.92
2018-07-28T14:26:40.497Z,30.57
2018-07-28T14:29:09.733Z,29.83
2018-07-28T14:31:38.870Z,30.05
2018-07-28T14:34:08.042Z,30.99
2018-07-28T14:36:37.229Z,31.42
2018-07-28T14:39:08.226Z,31.73
2018-07-28T14:41:37.703Z,32.33
2018-07-28T14:44:06.856Z,31.45
2018-07-28T14:46:35.950Z,31.28
2018-07-28T14:49:05.335Z,31.72
2018-07-28T14:51:34.548Z,31.14
2018-07-28T14:54:03.682Z,30.98
2018-07-28T14:56:32.777Z,30.48
2018-07-28T14:59:01.906Z,30.56
2018-07-28T15:01:31.166Z,30.88
2018-07-28T15:04:00.273Z,30.99
2018-07-28T15:06:29.425Z,30.68
2018-07-28T15:08:58.608Z,30.69
2018-07-28T15:11:27.870Z,30.23
2018-07-28T15:13:57.057Z,30.19
2018-07-28T15:16:26.211Z,30.04
2018-07-28T15:18:55.293Z,30.28
2018-07-28T15:21:24.687Z,30.55
2018-07-28T15:23:53.883Z,30.31
2018-07-28T15:26:22.989Z,30.06
2018-07-28T15:28:52.230Z,30.89
2018-07-28T15:31:22.255Z,30.62
2018-07-28T15:33:51.407Z,29.98
2018-07-28T15:36:20.592Z,30.17
2018-07-28T15:38:50.012Z,29.52
2018-07-28T15:41:19.290Z,29.41
2018-07-28T15:43:48.392Z,28.98
2018-07-28T15:46:17.658Z,28.57
2018-07-28T15:48:46.788Z,28.57
2018-07-28T15:51:15.922Z,28.23
2018-07-28T15:53:45.172Z,28.13
2018-07-28T15:56:14.280Z,28.05
2018-07-28T15:58:43.649Z,28.30
2018-07-28T16:01:12.894Z,28.38
2018-07-28T16:03:42.065Z,28.06
2018-07-28T16:06:11.289Z,28.04
2018-07-28T16:08:40.449Z,27.88
2018-07-28T16:11:09.565Z,27.81
2018-07-28T16:13:38.954Z,28.12
2018-07-28T16:16:08.259Z,27.97
2018-07-28T16:18:37.345Z,28.08
2018-07-28T16:21:06.489Z,28.02
2018-07-28T16:23:35.841Z,27.99
2018-07-28T16:26:05.366Z,27.64
2018-07-28T16:28:34.457Z,27.37
2018-07-28T16:31:03.633Z,27.39
2018-07-28T16:33:33.017Z,27.32
2018-07-28T16:36:02.134Z,27.33
2018-07-28T16:38:31.238Z,27.48
2018-07-28T16:41:00.503Z,27.57
2018-07-28T16:43:29.598Z,27.20
2018-07-28T16:45:59.144Z,26.80
2018-07-28T16:48:28.332Z,26.68
2018-07-28T16:50:57.484Z,26.82
2018-07-28T16:53:26.657Z,26.51
2018-07-28T16:55:55.849Z,26.64
2018-07-28T16:58:24.930Z,26.45
2018-07-28T17:00:54.034Z,26.52
2018-07-28T17:03:23.204Z,26.38
2018-07-28T17:05:52.324Z,26.35
2018-07-28T17:08:21.397Z,26.18
2018-07-28T17:10:50.584Z,26.19
2018-07-28T17:13:19.744Z,26.17
2018-07-28T17:15:48.888Z,26.01
2018-07-28T17:18:17.972Z,26.18
2018-07-28T17:20:47.097Z,26.03
2018-07-28T17:23:16.305Z,26.14
2018-07-28T17:25:45.484Z,26.00
2018-07-28T17:28:14.537Z,25.96
2018-07-28T17:30:43.691Z,25.92
2018-07-28T17:33:12.880Z,26.01
2018-07-28T17:35:41.981Z,25.94
2018-07-28T17:38:11.173Z,25.78
2018-07-28T17:40:46.616Z,25.61
2018-07-28T17:43:15.766Z,25.64
2018-07-28T17:45:44.836Z,25.53
2018-07-28T17:48:13.996Z,25.52
2018-07-28T17:50:43.056Z,25.47
2018-07-28T17:53:12.165Z,25.47
2018-07-28T17:55:41.413Z,25.43
2018-07-28T17:58:10.494Z,25.40
2018-07-28T18:00:39.596Z,25.34
2018-07-28T18:03:08.706Z,25.29
2018-07-28T18:05:37.930Z,25.23
2018-07-28T18:08:07.025Z,25.29
2018-07-28T18:10:36.177Z,25.18
2018-07-28T18:13:05.410Z,25.05
2018-07-28T18:15:35.390Z,25.00
2018-07-28T18:18:04.712Z,24.98
2018-07-28T18:20:33.771Z,24.96
2018-07-28T18:23:02.938Z,24.96
2018-07-28T18:25:32.473Z,24.93
2018-07-28T18:28:01.606Z,24.88
2018-07-28T18:30:30.712Z,24.89
2018-07-28T18:32:59.826Z,24.78
2018-07-28T18:35:28.947Z,24.78
2018-07-28T18:37:58.126Z,24.66
2018-07-28T18:40:27.246Z,24.74
2018-07-28T18:42:56.325Z,24.65
2018-07-28T18:45:25.461Z,24.58
2018-07-28T18:47:54.537Z,24.51
2018-07-28T18:50:23.833Z,24.45
2018-07-28T18:52:52.941Z,24.40
2018-07-28T18:55:22.044Z,24.38
2018-07-28T18:57:51.426Z,24.43
2018-07-28T19:00:20.564Z,24.35
2018-07-28T19:02:49.634Z,24.31
2018-07-28T19:05:18.706Z,24.31
2018-07-28T19:07:47.860Z,24.27
2018-07-28T19:10:17.104Z,24.30
2018-07-28T19:12:51.602Z,24.34
2018-07-28T19:15:20.759Z,24.23
2018-07-28T19:17:55.231Z,24.32
2018-07-28T19:20:24.462Z,24.13
2018-07-28T19:22:58.672Z,24.23
2018-07-28T19:25:27.792Z,23.97
2018-07-28T19:28:02.304Z,24.04
2018-07-28T19:30:31.453Z,24.09
2018-07-28T19:33:00.590Z,24.02
2018-07-28T19:35:34.988Z,23.94
2018-07-28T19:38:04.080Z,23.91
2018-07-28T19:40:33.199Z,23.93
2018-07-28T19:43:02.316Z,23.95
2018-07-28T19:45:31.418Z,23.88
2018-07-28T19:48:00.666Z,23.88
2018-07-28T19:50:29.958Z,23.81
2018-07-28T19:52:59.045Z,23.80
2018-07-28T19:55:28.150Z,23.76
2018-07-28T19:57:57.248Z,23.77
2018-07-28T20:00:26.461Z,23.73
2018-07-28T20:02:55.567Z,23.66
2018-07-28T20:05:24.997Z,23.56
2018-07-28T20:07:54.129Z,23.58
2018-07-28T20:10:23.357Z,23.57
2018-07-28T20:12:52.571Z,23.56
2018-07-28T20:15:21.629Z,23.60
2018-07-28T20:17:50.793Z,23.56
2018-07-28T20:20:19.936Z,23.46
2018-07-28T20:22:49.141Z,23.41
2018-07-28T20:25:18.297Z,23.35
2018-07-28T20:27:47.403Z,23.42
2018-07-28T20:30:16.530Z,23.43
2018-07-28T20:32:45.630Z,23.30
2018-07-28T20:35:14.804Z,23.23
2018-07-28T20:37:44.008Z,23.32
2018-07-28T20:40:13.111Z,23.29
2018-07-28T20:42:42.333Z,23.31
2018-07-28T20:45:11.441Z,23.27
2018-07-28T20:47:40.637Z,23.22
2018-07-28T20:50:09.780Z,23.20
2018-07-28T20:52:38.948Z,23.18
2018-07-28T20:55:08.060Z,23.25
2018-07-28T20:57:37.148Z,23.18
2018-07-28T21:00:06.409Z,23.12
2018-07-28T21:02:35.690Z,23.08
2018-07-28T21:05:05.078Z,23.05
2018-07-28T21:07:34.928Z,23.14
2018-07-28T21:10:04.255Z,23.16
2018-07-28T21:12:34.417Z,23.11
2018-07-28T21:15:04.465Z,23.17
2018-07-28T21:17:33.681Z,23.21
2018-07-28T21:20:03.353Z,23.03
2018-07-28T21:22:32.528Z,23.02
2018-07-28T21:25:02.259Z,23.05
2018-07-28T21:27:31.916Z,23.10
2018-07-28T21:30:01.361Z,23.10
2018-07-28T21:32:30.705Z,23.23
2018-07-28T21:35:00.472Z,23.15
2018-07-28T21:37:29.652Z,23.10
2018-07-28T21:40:00.099Z,23.06
2018-07-28T21:42:29.282Z,23.00
2018-07-28T21:44:58.454Z,23.03
2018-07-28T21:47:27.694Z,23.04
2018-07-28T21:49:56.916Z,22.98
2018-07-28T21:52:27.362Z,23.01
2018-07-28T21:54:57.392Z,22.96
2018-07-28T21:57:26.508Z,22.85
2018-07-28T21:59:55.942Z,22.98
2018-07-28T22:02:25.072Z,22.90
2018-07-28T22:04:54.935Z,23.01
2018-07-28T22:07:24.090Z,22.97
2018-07-28T22:09:53.305Z,22.90
2018-07-28T22:12:22.400Z,22.95
2018-07-28T22:14:52.835Z,22.92
2018-07-28T22:17:23.196Z,22.89
2018-07-28T22:19:52.414Z,22.90
2018-07-28T22:22:21.596Z,22.90
2018-07-28T22:24:51.817Z,22.73
2018-07-28T22:27:21.072Z,22.77
2018-07-28T22:29:50.897Z,22.75
2018-07-28T22:32:20.311Z,22.76
2018-07-28T22:34:50.042Z,22.78
2018-07-28T22:37:19.262Z,22.82
2018-07-28T22:39:48.557Z,22.79
2018-07-28T22:42:17.801Z,22.82
2018-07-28T22:44:46.953Z,22.76
2018-07-28T22:47:16.051Z,22.65
2018-07-28T22:49:45.301Z,22.64
2018-07-28T22:52:14.479Z,22.61
2018-07-28T22:54:43.973Z,22.62
2018-07-28T22:57:13.223Z,22.53
2018-07-28T22:59:42.337Z,22.63
2018-07-28T23:02:12.042Z,22.65
2018-07-28T23:04:41.283Z,22.62
2018-07-28T23:07:11.237Z,22.56
2018-07-28T23:09:47.324Z,22.54
2018-07-28T23:12:17.120Z,22.59
2018-07-28T23:14:48.163Z,22.54
2018-07-28T23:17:18.965Z,22.50
2018-07-28T23:19:49.733Z,22.57
2018-07-28T23:22:19.493Z,22.46
2018-07-28T23:24:50.379Z,22.44
2018-07-28T23:27:20.453Z,22.38
2018-07-28T23:29:49.769Z,22.34
2018-07-28T23:32:19.337Z,22.39
2018-07-28T23:34:48.585Z,22.44
2018-07-28T23:37:19.711Z,22.37
2018-07-28T23:39:48.957Z,22.40
2018-07-28T23:42:18.873Z,22.40
2018-07-28T23:44:48.133Z,22.29
2018-07-28T23:47:18.297Z,22.29
2018-07-28T23:49:47.597Z,22.25
2018-07-28T23:52:18.972Z,22.18
2018-07-28T23:54:48.749Z,22.12
2018-07-28T23:57:19.252Z,22.17
2018-07-28T23:59:49.568Z,22.19
